EmailTwitter


Observations de surface / États-Unis / KJFK (74486)

Régions: Québec | Canada | États-Unis | Europe | France | UK | Ailleurs
Station
Affichage
Infos & localisation pour KJFK (74486) | Aide pour décoder les METARs

Observations prises le 2018-07-17 à 12H51 UTC à NEW YORK/JF KENN, NY (KJFK)

Etat du ciel: ciel variable.

Température: 26.1 Celsius

Point de rosée: 23.9 Celsius

Humidité relative: 88%

Indice Humidex: 37.

Vents: Sud à 15 km/h ou 8 noeuds.

Pression au niveau moyen de la mer: 101.20 kilopascals.

Calage altimétrique: 101.22 kilopascals ou 29.89 pouces de mercure.

Visibilité horizontale: 10.00 milles terrestres ou 16.00 kilomètres.

Observation METAR:

KJFK 171251Z 19008KT 10SM FEW014 SCT260 26/24 A2989 RMK AO2 SLP120 T02610239 $=